createdAt,value
2023-08-14T00:00:52.381Z,4.35
2023-08-14T00:03:20.924Z,4.15
2023-08-14T00:05:47.823Z,3.85
2023-08-14T00:08:14.554Z,4.53
2023-08-14T00:10:41.371Z,4.30
2023-08-14T00:13:08.229Z,4.20
2023-08-14T00:15:34.991Z,4.20
2023-08-14T00:18:01.818Z,3.78
2023-08-14T00:20:28.574Z,4.38
2023-08-14T00:22:55.326Z,4.53
2023-08-14T00:25:22.850Z,4.43
2023-08-14T00:27:49.603Z,4.50
2023-08-14T00:30:16.439Z,4.47
2023-08-14T00:32:43.328Z,4.93
2023-08-14T00:35:10.048Z,4.47
2023-08-14T00:37:41.073Z,4.30
2023-08-14T00:40:08.515Z,4.20
2023-08-14T00:42:35.388Z,4.53
2023-08-14T00:45:02.085Z,4.45
2023-08-14T00:47:29.220Z,4.40
2023-08-14T00:49:56.021Z,4.55
2023-08-14T00:52:22.994Z,4.50
2023-08-14T00:54:50.016Z,4.20
2023-08-14T00:57:16.668Z,4.38
2023-08-14T00:59:43.344Z,4.18
2023-08-14T01:02:10.288Z,4.22
2023-08-14T01:04:37.140Z,3.70
2023-08-14T01:07:04.907Z,3.97
2023-08-14T01:09:31.780Z,4.05
2023-08-14T01:12:02.725Z,4.40
2023-08-14T01:14:33.130Z,4.60
2023-08-14T01:17:06.637Z,4.20
2023-08-14T01:19:34.580Z,4.30
2023-08-14T01:22:22.610Z,4.03
2023-08-14T01:24:54.195Z,4.63
2023-08-14T01:27:21.160Z,5.60
2023-08-14T01:29:58.612Z,3.83
2023-08-14T01:32:25.391Z,4.32
2023-08-14T01:34:52.519Z,3.75
2023-08-14T01:37:44.764Z,3.88
2023-08-14T01:40:45.293Z,4.15
2023-08-14T01:43:20.167Z,4.32
2023-08-14T01:45:46.883Z,3.85
2023-08-14T01:48:13.617Z,3.78
2023-08-14T01:50:40.422Z,3.75
2023-08-14T01:53:07.786Z,3.80
2023-08-14T01:55:34.752Z,3.83
2023-08-14T01:58:01.479Z,3.88
2023-08-14T02:00:30.402Z,3.45
2023-08-14T02:02:58.587Z,3.50
2023-08-14T02:05:25.526Z,4.03
2023-08-14T02:07:52.234Z,3.75
2023-08-14T02:10:19.107Z,3.88
2023-08-14T02:12:45.949Z,4.00
2023-08-14T02:15:12.698Z,4.00
2023-08-14T02:17:39.567Z,4.07
2023-08-14T02:20:06.860Z,3.88
2023-08-14T02:22:33.631Z,3.60
2023-08-14T02:25:00.337Z,3.97
2023-08-14T02:27:27.324Z,4.20
2023-08-14T02:29:54.055Z,3.45
2023-08-14T02:32:21.060Z,3.65
2023-08-14T02:34:49.211Z,3.67
2023-08-14T02:37:17.919Z,3.50
2023-08-14T02:39:45.052Z,3.70
2023-08-14T02:42:11.950Z,3.80
2023-08-14T02:44:38.666Z,3.70
2023-08-14T02:47:05.493Z,3.92
2023-08-14T02:49:32.205Z,3.85
2023-08-14T02:51:58.980Z,4.10
2023-08-14T02:54:26.022Z,4.05
2023-08-14T02:56:54.857Z,3.90
2023-08-14T02:59:22.092Z,3.80
2023-08-14T03:01:48.912Z,3.83
2023-08-14T03:04:17.013Z,3.65
2023-08-14T03:06:43.740Z,4.20
2023-08-14T03:09:10.766Z,3.67
2023-08-14T03:11:37.550Z,3.70
2023-08-14T03:14:05.235Z,3.58
2023-08-14T03:16:31.939Z,3.92
2023-08-14T03:18:58.612Z,3.42
2023-08-14T03:21:25.339Z,3.40
2023-08-14T03:23:52.040Z,3.47
2023-08-14T03:26:18.841Z,3.47
2023-08-14T03:28:45.491Z,3.00
2023-08-14T03:31:12.348Z,3.53
2023-08-14T03:33:39.175Z,3.70
2023-08-14T03:36:06.145Z,3.47
2023-08-14T03:38:32.902Z,3.40
2023-08-14T03:40:59.662Z,3.88
2023-08-14T03:43:26.401Z,4.07
2023-08-14T03:45:53.141Z,3.72
2023-08-14T03:48:19.902Z,3.70
2023-08-14T03:50:47.976Z,4.15
2023-08-14T03:53:14.981Z,3.92
2023-08-14T03:55:41.924Z,3.80
2023-08-14T03:58:08.864Z,3.78
2023-08-14T04:00:35.787Z,3.47
2023-08-14T04:03:03.322Z,4.15
2023-08-14T04:05:30.300Z,3.50
2023-08-14T04:07:57.088Z,3.80
2023-08-14T04:10:25.138Z,3.80
2023-08-14T04:12:52.090Z,4.05
2023-08-14T04:15:19.039Z,3.92
2023-08-14T04:17:45.860Z,3.50
2023-08-14T04:20:12.752Z,4.30
2023-08-14T04:22:39.652Z,3.88
2023-08-14T04:25:06.806Z,3.85
2023-08-14T04:27:33.491Z,3.97
2023-08-14T04:30:00.424Z,4.00
2023-08-14T04:32:27.366Z,4.45
2023-08-14T04:34:54.181Z,4.82
2023-08-14T04:37:20.873Z,4.68
2023-08-14T04:39:47.669Z,4.07
2023-08-14T04:42:14.409Z,4.30
2023-08-14T04:44:41.096Z,4.65
2023-08-14T04:47:07.709Z,4.93
2023-08-14T04:49:34.364Z,4.88
2023-08-14T04:52:01.138Z,4.50
2023-08-14T04:54:28.484Z,4.57
2023-08-14T04:56:55.238Z,4.50
2023-08-14T04:59:21.986Z,5.30
2023-08-14T05:01:48.706Z,5.35
2023-08-14T05:04:15.536Z,6.20
2023-08-14T05:06:42.427Z,5.68
2023-08-14T05:09:24.176Z,6.32
2023-08-14T05:11:53.006Z,6.17
2023-08-14T05:14:20.325Z,6.72
2023-08-14T05:16:47.479Z,6.00
2023-08-14T05:19:14.526Z,5.35
2023-08-14T05:21:41.214Z,5.60
2023-08-14T05:24:08.187Z,5.82
2023-08-14T05:26:35.073Z,5.47
2023-08-14T05:29:01.765Z,5.13
2023-08-14T05:31:28.709Z,5.22
2023-08-14T05:33:55.404Z,4.82
2023-08-14T05:36:22.058Z,4.80
2023-08-14T05:38:48.853Z,4.82
2023-08-14T05:41:15.739Z,4.85
2023-08-14T05:43:42.488Z,5.10
2023-08-14T05:46:09.302Z,5.20
2023-08-14T05:48:36.062Z,4.30
2023-08-14T05:51:02.767Z,5.18
2023-08-14T05:53:29.576Z,5.53
2023-08-14T05:55:56.359Z,5.25
2023-08-14T05:58:23.066Z,5.57
2023-08-14T06:00:51.280Z,5.00
2023-08-14T06:03:29.273Z,5.45
2023-08-14T06:06:05.815Z,4.50
2023-08-14T06:08:32.990Z,4.55
2023-08-14T06:10:59.640Z,4.47
2023-08-14T06:13:26.359Z,4.00
2023-08-14T06:15:53.154Z,3.58
2023-08-14T06:18:20.024Z,3.70
2023-08-14T06:20:46.769Z,3.67
2023-08-14T06:23:13.479Z,3.22
2023-08-14T06:25:40.115Z,3.00
2023-08-14T06:28:06.963Z,3.25
2023-08-14T06:30:33.746Z,3.22
2023-08-14T06:33:00.574Z,2.85
2023-08-14T06:35:27.412Z,2.40
2023-08-14T06:37:54.174Z,2.70
2023-08-14T06:40:20.915Z,2.17
2023-08-14T06:42:47.763Z,2.40
2023-08-14T06:45:14.430Z,2.33
2023-08-14T06:47:45.859Z,2.05
2023-08-14T06:50:13.724Z,2.40
2023-08-14T06:52:40.684Z,2.30
2023-08-14T06:55:07.637Z,2.00
2023-08-14T06:57:34.410Z,2.13
2023-08-14T07:00:13.725Z,2.28
2023-08-14T07:02:41.198Z,2.50
2023-08-14T07:05:11.161Z,2.10
2023-08-14T07:07:38.677Z,2.08
2023-08-14T07:10:05.808Z,2.53
2023-08-14T07:12:32.573Z,2.30
2023-08-14T07:14:59.591Z,2.42
2023-08-14T07:17:26.413Z,2.22
2023-08-14T07:19:53.083Z,2.47
2023-08-14T07:22:19.952Z,2.10
2023-08-14T07:24:46.877Z,2.35
2023-08-14T07:27:13.660Z,2.38
2023-08-14T07:29:40.450Z,2.28
2023-08-14T07:32:07.406Z,2.25
2023-08-14T07:34:34.183Z,2.28
2023-08-14T07:37:01.021Z,2.60
2023-08-14T07:39:27.824Z,2.88
2023-08-14T07:41:54.720Z,1.90
2023-08-14T07:44:21.452Z,2.17
2023-08-14T07:46:48.277Z,2.30
2023-08-14T07:49:15.016Z,2.10
2023-08-14T07:51:41.687Z,2.10
2023-08-14T07:54:08.488Z,2.35
2023-08-14T07:56:35.198Z,2.28
2023-08-14T07:59:02.012Z,2.13
2023-08-14T08:01:28.925Z,2.13
2023-08-14T08:03:55.761Z,2.05
2023-08-14T08:06:22.604Z,2.17
2023-08-14T08:08:51.019Z,1.98
2023-08-14T08:11:18.515Z,2.50
2023-08-14T08:13:45.237Z,2.10
2023-08-14T08:16:12.032Z,2.20
2023-08-14T08:18:38.773Z,1.75
2023-08-14T08:21:05.399Z,1.98
2023-08-14T08:23:32.112Z,2.30
2023-08-14T08:25:58.916Z,1.90
2023-08-14T08:28:25.698Z,2.05
2023-08-14T08:30:52.432Z,1.88
2023-08-14T08:33:26.908Z,2.00
2023-08-14T08:35:54.569Z,2.22
2023-08-14T08:38:21.384Z,2.05
2023-08-14T08:40:48.953Z,2.05
2023-08-14T08:43:16.115Z,2.22
2023-08-14T08:45:43.543Z,2.08
2023-08-14T08:48:10.357Z,2.22
2023-08-14T08:50:37.089Z,2.30
2023-08-14T08:53:03.945Z,2.00
2023-08-14T08:55:30.656Z,2.42
2023-08-14T08:57:59.160Z,1.90
2023-08-14T09:00:26.132Z,1.83
2023-08-14T09:02:53.099Z,2.30
2023-08-14T09:05:20.069Z,1.90
2023-08-14T09:07:48.397Z,2.03
2023-08-14T09:10:16.161Z,1.80
2023-08-14T09:12:43.054Z,2.10
2023-08-14T09:15:10.630Z,2.00
2023-08-14T09:17:37.490Z,1.88
2023-08-14T09:20:12.111Z,2.30
2023-08-14T09:22:42.505Z,1.88
2023-08-14T09:25:09.469Z,1.70
2023-08-14T09:27:36.217Z,2.13
2023-08-14T09:30:03.085Z,2.08
2023-08-14T09:32:29.920Z,2.00
2023-08-14T09:35:03.346Z,2.03
2023-08-14T09:37:30.182Z,2.17
2023-08-14T09:40:14.703Z,1.77
2023-08-14T09:42:44.855Z,1.90
2023-08-14T09:45:13.025Z,1.90
2023-08-14T09:47:41.832Z,1.80
2023-08-14T09:50:09.024Z,1.65
2023-08-14T09:52:36.533Z,1.70
2023-08-14T09:55:10.924Z,1.55
2023-08-14T09:57:38.592Z,1.65
2023-08-14T10:00:06.285Z,1.80
2023-08-14T10:02:34.110Z,1.92
2023-08-14T10:05:04.802Z,1.83
2023-08-14T10:07:31.609Z,1.73
2023-08-14T10:09:58.527Z,2.10
2023-08-14T10:12:32.080Z,1.95
2023-08-14T10:15:06.701Z,2.25
2023-08-14T10:17:35.753Z,2.05
2023-08-14T10:20:04.349Z,1.73
2023-08-14T10:22:33.729Z,1.92
2023-08-14T10:25:03.298Z,1.85
2023-08-14T10:27:30.584Z,1.77
2023-08-14T10:29:57.341Z,1.95
2023-08-14T10:32:24.028Z,2.03
2023-08-14T10:34:50.854Z,1.67
2023-08-14T10:37:28.130Z,2.15
2023-08-14T10:40:23.665Z,1.80
2023-08-14T10:42:55.999Z,1.60
2023-08-14T10:45:23.786Z,1.80
2023-08-14T10:47:55.005Z,2.00
2023-08-14T10:50:24.600Z,1.67
2023-08-14T10:52:55.361Z,1.80
2023-08-14T10:55:36.768Z,1.40
2023-08-14T10:58:38.233Z,1.70
2023-08-14T11:01:11.879Z,1.55
2023-08-14T11:04:06.920Z,1.92
2023-08-14T11:09:19.067Z,1.98
2023-08-14T11:11:48.394Z,1.55
2023-08-14T11:14:15.233Z,1.42
2023-08-14T11:16:42.658Z,1.52
2023-08-14T11:19:09.555Z,1.70
2023-08-14T11:21:36.951Z,1.65
2023-08-14T11:24:13.041Z,1.35
2023-08-14T11:26:39.839Z,1.70
2023-08-14T11:29:06.576Z,2.13
2023-08-14T11:31:35.036Z,1.40
2023-08-14T11:34:08.456Z,1.42
2023-08-14T11:36:35.564Z,2.45
2023-08-14T11:39:02.414Z,1.63
2023-08-14T11:41:32.376Z,1.48
2023-08-14T11:43:59.454Z,1.95
2023-08-14T11:46:26.461Z,1.50
2023-08-14T11:48:53.792Z,1.60
2023-08-14T11:51:21.029Z,1.38
2023-08-14T11:53:47.770Z,1.48
2023-08-14T11:56:14.464Z,1.33
2023-08-14T11:58:42.038Z,1.40
2023-08-14T12:01:10.685Z,1.38
2023-08-14T12:03:37.482Z,1.40
2023-08-14T12:06:05.238Z,1.20
2023-08-14T12:08:31.987Z,1.80
2023-08-14T12:10:58.818Z,1.50
2023-08-14T12:13:25.601Z,1.60
2023-08-14T12:15:53.392Z,1.55
2023-08-14T12:18:24.369Z,1.48
2023-08-14T12:20:55.037Z,1.90
2023-08-14T12:23:25.109Z,2.05
2023-08-14T12:25:52.420Z,1.60
2023-08-14T12:28:22.718Z,1.65
2023-08-14T12:30:50.636Z,1.60
2023-08-14T12:33:17.791Z,2.15
2023-08-14T12:35:44.516Z,2.20
2023-08-14T12:38:11.262Z,1.73
2023-08-14T12:40:38.060Z,1.70
2023-08-14T12:43:04.834Z,1.73
2023-08-14T12:45:31.656Z,1.70
2023-08-14T12:47:58.523Z,2.63
2023-08-14T12:50:25.529Z,1.75
2023-08-14T12:52:52.411Z,1.90
2023-08-14T12:55:19.503Z,1.73
2023-08-14T12:57:48.622Z,1.80
2023-08-14T13:00:16.105Z,1.55
2023-08-14T13:02:42.963Z,1.83
2023-08-14T13:05:09.902Z,1.95
2023-08-14T13:07:36.747Z,1.92
2023-08-14T13:10:04.246Z,1.60
2023-08-14T13:12:31.052Z,1.90
2023-08-14T13:14:57.738Z,1.80
2023-08-14T13:17:24.667Z,2.10
2023-08-14T13:19:52.116Z,2.13
2023-08-14T13:22:19.870Z,1.83
2023-08-14T13:24:46.729Z,1.90
2023-08-14T13:27:13.570Z,2.17
2023-08-14T13:29:40.373Z,1.80
2023-08-14T13:32:07.188Z,1.80
2023-08-14T13:34:34.039Z,2.20
2023-08-14T13:37:00.753Z,2.22
2023-08-14T13:39:27.556Z,1.85
2023-08-14T13:41:54.685Z,2.05
2023-08-14T13:44:21.490Z,1.80
2023-08-14T13:46:48.309Z,1.95
2023-08-14T13:49:14.986Z,2.20
2023-08-14T13:51:45.581Z,2.10
2023-08-14T13:54:12.760Z,1.63
2023-08-14T13:56:40.757Z,1.77
2023-08-14T13:59:07.423Z,1.65
2023-08-14T14:01:34.232Z,2.20
2023-08-14T14:04:01.019Z,1.98
2023-08-14T14:06:27.846Z,1.90
2023-08-14T14:08:54.678Z,2.10
2023-08-14T14:11:21.465Z,2.30
2023-08-14T14:13:48.213Z,2.05
2023-08-14T14:16:14.963Z,2.30
2023-08-14T14:18:41.751Z,1.85
2023-08-14T14:21:08.490Z,2.13
2023-08-14T14:23:35.195Z,1.88
2023-08-14T14:26:01.894Z,2.20
2023-08-14T14:28:30.493Z,2.30
2023-08-14T14:30:57.513Z,1.83
2023-08-14T14:33:24.381Z,1.85
2023-08-14T14:35:51.162Z,1.77
2023-08-14T14:38:17.903Z,2.03
2023-08-14T14:40:44.596Z,1.80
2023-08-14T14:43:11.317Z,1.85
2023-08-14T14:45:38.119Z,2.00
2023-08-14T14:48:05.253Z,1.70
2023-08-14T14:50:32.150Z,2.33
2023-08-14T14:52:58.933Z,1.92
2023-08-14T14:55:27.679Z,2.10
2023-08-14T14:57:54.508Z,1.80
2023-08-14T15:00:21.489Z,1.98
2023-08-14T15:02:48.355Z,2.20
2023-08-14T15:05:27.738Z,1.92
2023-08-14T15:07:56.337Z,2.15
2023-08-14T15:10:23.200Z,2.33
2023-08-14T15:12:49.933Z,1.90
2023-08-14T15:15:19.696Z,1.80
2023-08-14T15:17:47.443Z,2.00
2023-08-14T15:20:14.647Z,2.08
2023-08-14T15:22:44.254Z,2.03
2023-08-14T15:25:13.104Z,1.77
2023-08-14T15:27:39.901Z,1.90
2023-08-14T15:30:07.174Z,2.10
2023-08-14T15:32:34.145Z,2.05
2023-08-14T15:35:00.827Z,2.08
2023-08-14T15:37:27.545Z,1.75
2023-08-14T15:39:55.021Z,1.90
2023-08-14T15:42:24.892Z,2.20
2023-08-14T15:44:55.233Z,2.15
2023-08-14T15:47:22.023Z,1.90
2023-08-14T15:49:48.927Z,2.00
2023-08-14T15:52:16.108Z,2.08
2023-08-14T15:54:53.337Z,2.30
2023-08-14T15:57:22.154Z,1.98
2023-08-14T15:59:49.183Z,2.40
2023-08-14T16:02:16.285Z,1.98
2023-08-14T16:04:43.027Z,2.53
2023-08-14T16:07:09.686Z,2.97
2023-08-14T16:09:36.429Z,2.25
2023-08-14T16:12:03.428Z,2.45
2023-08-14T16:14:30.148Z,1.92
2023-08-14T16:16:58.106Z,2.60
2023-08-14T16:19:24.887Z,2.30
2023-08-14T16:21:51.602Z,2.70
2023-08-14T16:24:18.347Z,2.50
2023-08-14T16:26:45.107Z,2.28
2023-08-14T16:29:12.715Z,2.40
2023-08-14T16:31:39.448Z,2.38
2023-08-14T16:34:06.323Z,2.00
2023-08-14T16:36:33.078Z,2.28
2023-08-14T16:38:59.885Z,2.30
2023-08-14T16:41:26.766Z,2.28
2023-08-14T16:43:53.464Z,2.00
2023-08-14T16:46:20.256Z,1.98
2023-08-14T16:48:47.686Z,2.15
2023-08-14T16:51:14.794Z,2.30
2023-08-14T16:53:41.453Z,2.53
2023-08-14T16:56:08.253Z,2.10
2023-08-14T16:58:35.099Z,2.40
2023-08-14T17:01:01.755Z,2.30
2023-08-14T17:03:28.552Z,2.22
2023-08-14T17:06:02.020Z,2.38
2023-08-14T17:08:29.540Z,2.47
2023-08-14T17:10:56.202Z,2.17
2023-08-14T17:13:23.060Z,2.28
2023-08-14T17:15:49.956Z,2.25
2023-08-14T17:18:16.788Z,2.47
2023-08-14T17:20:47.132Z,2.17
2023-08-14T17:23:13.956Z,3.58
2023-08-14T17:25:41.324Z,2.33
2023-08-14T17:28:08.309Z,2.55
2023-08-14T17:30:38.677Z,2.40
2023-08-14T17:33:05.598Z,2.55
2023-08-14T17:35:32.311Z,2.28
2023-08-14T17:37:59.490Z,2.70
2023-08-14T17:40:26.592Z,2.22
2023-08-14T17:42:53.601Z,2.55
2023-08-14T17:45:20.388Z,2.55
2023-08-14T17:47:47.135Z,2.47
2023-08-14T17:50:14.041Z,2.40
2023-08-14T17:52:40.814Z,2.38
2023-08-14T17:55:07.995Z,2.50
2023-08-14T17:57:34.909Z,2.80
2023-08-14T18:00:01.663Z,2.90
2023-08-14T18:02:28.514Z,2.92
2023-08-14T18:04:55.540Z,2.90
2023-08-14T18:07:22.491Z,2.80
2023-08-14T18:09:49.395Z,3.15
2023-08-14T18:12:16.284Z,3.00
2023-08-14T18:14:43.017Z,2.70
2023-08-14T18:17:10.232Z,3.03
2023-08-14T18:19:37.141Z,3.17
2023-08-14T18:22:04.325Z,2.65
2023-08-14T18:24:31.444Z,2.88
2023-08-14T18:26:58.084Z,3.15
2023-08-14T18:29:24.908Z,3.20
2023-08-14T18:31:51.674Z,3.13
2023-08-14T18:34:19.588Z,2.90
2023-08-14T18:36:46.443Z,2.92
2023-08-14T18:39:13.286Z,2.83
2023-08-14T18:41:40.106Z,3.40
2023-08-14T18:44:07.034Z,3.15
2023-08-14T18:46:33.928Z,2.90
2023-08-14T18:49:00.757Z,2.90
2023-08-14T18:51:27.602Z,3.40
2023-08-14T18:53:55.064Z,3.10
2023-08-14T18:56:21.883Z,3.10
2023-08-14T18:58:50.669Z,3.25
2023-08-14T19:01:17.396Z,3.70
2023-08-14T19:03:44.159Z,3.00
2023-08-14T19:06:11.000Z,3.10
2023-08-14T19:08:37.736Z,3.30
2023-08-14T19:11:04.444Z,3.10
2023-08-14T19:13:31.261Z,3.35
2023-08-14T19:15:58.098Z,3.30
2023-08-14T19:18:24.906Z,3.38
2023-08-14T19:20:51.554Z,3.40
2023-08-14T19:23:18.168Z,3.10
2023-08-14T19:25:44.883Z,3.40
2023-08-14T19:28:21.667Z,3.47
2023-08-14T19:30:49.569Z,3.20
2023-08-14T19:33:16.258Z,3.40
2023-08-14T19:35:44.147Z,3.53
2023-08-14T19:38:10.992Z,3.72
2023-08-14T19:40:38.166Z,3.30
2023-08-14T19:43:04.904Z,3.50
2023-08-14T19:45:31.610Z,3.22
2023-08-14T19:47:58.606Z,3.42
2023-08-14T19:50:25.427Z,3.60
2023-08-14T19:52:52.085Z,3.10
2023-08-14T19:55:18.789Z,3.67
2023-08-14T19:57:45.589Z,3.65
2023-08-14T20:00:13.255Z,3.40
2023-08-14T20:02:40.080Z,3.50
2023-08-14T20:05:06.990Z,3.20
2023-08-14T20:07:34.124Z,3.08
2023-08-14T20:10:01.668Z,3.50
2023-08-14T20:12:28.489Z,3.35
2023-08-14T20:14:55.813Z,3.63
2023-08-14T20:17:22.494Z,3.63
2023-08-14T20:19:49.218Z,3.60
2023-08-14T20:22:15.958Z,3.50
2023-08-14T20:24:42.767Z,3.25
2023-08-14T20:27:09.485Z,3.72
2023-08-14T20:29:36.364Z,4.00
2023-08-14T20:32:03.165Z,3.58
2023-08-14T20:34:30.326Z,3.97
2023-08-14T20:36:56.981Z,3.60
2023-08-14T20:39:23.737Z,3.30
2023-08-14T20:41:50.482Z,3.58
2023-08-14T20:44:17.282Z,4.00
2023-08-14T20:46:44.632Z,3.75
2023-08-14T20:49:11.675Z,3.38
2023-08-14T20:51:38.429Z,3.55
2023-08-14T20:54:05.472Z,3.58
2023-08-14T20:56:32.741Z,3.80
2023-08-14T20:58:59.363Z,4.00
2023-08-14T21:01:26.068Z,3.33
2023-08-14T21:03:52.995Z,4.32
2023-08-14T21:06:19.729Z,3.70
2023-08-14T21:08:46.502Z,3.20
2023-08-14T21:11:15.920Z,3.72
2023-08-14T21:13:43.986Z,4.03
2023-08-14T21:16:10.732Z,3.88
2023-08-14T21:18:38.205Z,3.63
2023-08-14T21:21:05.585Z,4.03
2023-08-14T21:23:32.398Z,3.90
2023-08-14T21:25:59.063Z,4.22
2023-08-14T21:28:25.845Z,4.13
2023-08-14T21:31:01.880Z,4.07
2023-08-14T21:33:28.587Z,4.30
2023-08-14T21:35:57.002Z,4.50
2023-08-14T21:38:23.871Z,4.35
2023-08-14T21:40:53.725Z,4.35
2023-08-14T21:43:20.377Z,3.75
2023-08-14T21:45:47.090Z,3.90
2023-08-14T21:48:13.877Z,3.85
2023-08-14T21:50:41.242Z,4.10
2023-08-14T21:53:07.948Z,4.47
2023-08-14T21:55:34.760Z,3.88
2023-08-14T21:58:01.477Z,4.13
2023-08-14T22:00:28.221Z,3.75
2023-08-14T22:02:54.981Z,3.20
2023-08-14T22:05:21.780Z,3.75
2023-08-14T22:07:48.525Z,3.72
2023-08-14T22:10:15.254Z,3.50
2023-08-14T22:12:45.642Z,3.50
2023-08-14T22:15:12.716Z,3.15
2023-08-14T22:17:39.511Z,3.95
2023-08-14T22:20:07.766Z,3.13
2023-08-14T22:22:34.545Z,3.92
2023-08-14T22:25:01.342Z,3.28
2023-08-14T22:27:28.150Z,3.22
2023-08-14T22:29:54.880Z,3.22
2023-08-14T22:32:21.666Z,3.50
2023-08-14T22:34:48.341Z,3.28
2023-08-14T22:37:14.949Z,3.60
2023-08-14T22:39:41.687Z,3.90
2023-08-14T22:42:08.395Z,3.58
2023-08-14T22:44:35.072Z,3.35
2023-08-14T22:47:01.783Z,3.80
2023-08-14T22:49:28.459Z,3.78
2023-08-14T22:51:55.137Z,3.88
2023-08-14T22:54:21.933Z,3.90
2023-08-14T22:56:48.611Z,3.70
2023-08-14T22:59:15.284Z,4.13
2023-08-14T23:01:42.148Z,4.20
2023-08-14T23:04:09.124Z,3.85
2023-08-14T23:06:35.874Z,4.43
2023-08-14T23:09:02.536Z,3.95
2023-08-14T23:11:31.514Z,3.95
2023-08-14T23:13:58.256Z,3.45
2023-08-14T23:16:25.007Z,3.70
2023-08-14T23:18:51.783Z,3.35
2023-08-14T23:21:18.428Z,3.85
2023-08-14T23:23:45.102Z,4.13
2023-08-14T23:26:12.088Z,4.45
2023-08-14T23:28:38.806Z,4.57
2023-08-14T23:31:05.448Z,4.40
2023-08-14T23:33:32.215Z,4.28
2023-08-14T23:35:58.913Z,4.22
2023-08-14T23:38:25.624Z,4.35
2023-08-14T23:40:52.433Z,4.10
2023-08-14T23:43:19.088Z,4.15
2023-08-14T23:45:46.408Z,4.00
2023-08-14T23:48:13.148Z,3.90
2023-08-14T23:50:39.997Z,4.13
2023-08-14T23:53:06.654Z,4.22
2023-08-14T23:55:33.400Z,3.95
2023-08-14T23:58:00.206Z,4.55
